createdAt,value
2022-10-17T00:03:23.231Z,4.90
2022-10-17T00:07:25.015Z,4.80
2022-10-17T00:11:26.847Z,4.50
2022-10-17T00:15:29.939Z,4.63
2022-10-17T00:19:31.535Z,4.20
2022-10-17T00:23:33.769Z,4.60
2022-10-17T00:27:36.201Z,4.50
2022-10-17T00:31:39.116Z,4.90
2022-10-17T00:35:40.566Z,4.80
2022-10-17T00:39:42.119Z,4.03
2022-10-17T00:43:52.816Z,4.77
2022-10-17T00:48:00.923Z,4.20
2022-10-17T00:52:06.124Z,4.07
2022-10-17T00:56:08.424Z,4.30
2022-10-17T01:00:11.672Z,4.93
2022-10-17T01:04:14.859Z,4.67
2022-10-17T01:08:16.685Z,5.17
2022-10-17T01:12:22.040Z,4.90
2022-10-17T01:16:35.609Z,4.70
2022-10-17T01:21:30.291Z,5.27
2022-10-17T01:25:45.828Z,5.40
2022-10-17T01:29:59.959Z,5.50
2022-10-17T01:34:08.304Z,5.23
2022-10-17T01:38:13.432Z,5.17
2022-10-17T01:42:20.136Z,5.20
2022-10-17T01:46:26.755Z,4.93
2022-10-17T01:50:34.331Z,5.07
2022-10-17T01:54:41.475Z,5.67
2022-10-17T01:58:48.531Z,5.67
2022-10-17T02:02:53.220Z,6.93
2022-10-17T02:06:56.040Z,6.60
2022-10-17T02:11:03.359Z,5.73
2022-10-17T02:15:17.137Z,6.40
2022-10-17T02:19:35.203Z,5.80
2022-10-17T02:23:47.419Z,5.77
2022-10-17T02:27:52.920Z,5.10
2022-10-17T02:32:00.468Z,6.33
2022-10-17T02:36:07.107Z,6.00
2022-10-17T02:40:12.596Z,5.27
2022-10-17T02:44:14.579Z,5.37
2022-10-17T02:48:22.292Z,4.50
2022-10-17T02:52:28.763Z,4.50
2022-10-17T02:56:39.803Z,4.20
2022-10-17T03:00:42.534Z,4.20
2022-10-17T03:04:45.052Z,4.60
2022-10-17T03:08:46.636Z,4.70
2022-10-17T03:12:49.395Z,5.53
2022-10-17T03:16:50.867Z,5.07
2022-10-17T03:20:52.333Z,4.87
2022-10-17T03:24:53.784Z,4.97
2022-10-17T03:28:56.720Z,4.50
2022-10-17T03:32:58.591Z,4.80
2022-10-17T03:37:00.177Z,4.50
2022-10-17T03:41:02.039Z,5.27
2022-10-17T03:45:05.729Z,4.67
2022-10-17T03:49:08.839Z,4.60
2022-10-17T03:53:10.366Z,4.30
2022-10-17T03:57:12.227Z,4.73
2022-10-17T04:01:17.728Z,4.10
2022-10-17T04:05:19.492Z,3.80
2022-10-17T04:09:21.099Z,3.63
2022-10-17T04:13:22.571Z,3.70
2022-10-17T04:17:25.836Z,3.60
2022-10-17T04:21:31.963Z,3.60
2022-10-17T04:25:36.046Z,3.30
2022-10-17T04:29:38.471Z,3.60
2022-10-17T04:33:41.651Z,3.70
2022-10-17T04:37:43.091Z,3.83
2022-10-17T04:41:44.697Z,3.53
2022-10-17T04:45:46.284Z,3.43
2022-10-17T04:49:49.055Z,3.40
2022-10-17T04:53:50.554Z,3.53
2022-10-17T04:57:52.036Z,3.20
2022-10-17T05:01:53.519Z,3.60
2022-10-17T05:05:56.563Z,3.47
2022-10-17T05:09:58.367Z,3.57
2022-10-17T05:14:01.767Z,4.43
2022-10-17T05:18:03.814Z,4.40
2022-10-17T05:22:07.191Z,4.00
2022-10-17T05:26:08.760Z,4.60
2022-10-17T05:30:11.367Z,3.87
2022-10-17T05:34:13.971Z,3.73
2022-10-17T05:38:16.909Z,4.30
2022-10-17T05:42:18.594Z,4.60
2022-10-17T05:46:20.254Z,4.50
2022-10-17T05:50:21.866Z,4.40
2022-10-17T05:54:24.929Z,3.83
2022-10-17T06:02:49.201Z,4.57
2022-10-17T06:06:50.749Z,3.73
2022-10-17T06:10:53.651Z,4.40
2022-10-17T06:14:55.132Z,3.90
2022-10-17T06:18:56.730Z,4.00
2022-10-17T06:22:58.210Z,4.10
2022-10-17T06:27:01.233Z,4.37
2022-10-17T06:31:05.089Z,3.30
2022-10-17T06:35:07.519Z,3.90
2022-10-17T06:39:08.957Z,4.20
2022-10-17T06:43:11.942Z,3.90
2022-10-17T06:47:15.380Z,4.13
2022-10-17T06:51:19.312Z,3.93
2022-10-17T06:55:23.007Z,3.90
2022-10-17T06:59:26.409Z,4.40
2022-10-17T07:03:28.558Z,3.50
2022-10-17T07:07:30.908Z,3.83
2022-10-17T07:11:34.296Z,4.00
2022-10-17T07:15:38.435Z,3.40
2022-10-17T07:19:39.869Z,3.50
2022-10-17T07:23:41.446Z,3.90
2022-10-17T07:27:43.927Z,3.77
2022-10-17T07:31:46.742Z,3.37
2022-10-17T07:35:48.166Z,3.60
2022-10-17T07:39:49.585Z,3.67
2022-10-17T07:43:51.018Z,3.47
2022-10-17T07:47:57.092Z,3.77
2022-10-17T07:51:58.606Z,3.60
2022-10-17T07:56:04.219Z,3.73
2022-10-17T08:00:07.310Z,3.00
2022-10-17T08:04:10.320Z,3.17
2022-10-17T08:08:11.729Z,3.30
2022-10-17T08:12:14.256Z,3.63
2022-10-17T08:16:15.912Z,3.63
2022-10-17T08:20:18.869Z,3.80
2022-10-17T08:24:20.600Z,4.57
2022-10-17T08:28:22.134Z,6.43
2022-10-17T08:32:26.301Z,7.33
2022-10-17T08:36:29.345Z,4.10
2022-10-17T08:40:32.019Z,4.10
2022-10-17T08:44:49.127Z,3.20
2022-10-17T08:48:52.129Z,3.30
2022-10-17T08:53:00.552Z,3.33
2022-10-17T08:57:02.053Z,2.90
2022-10-17T09:01:13.303Z,3.10
2022-10-17T09:05:27.259Z,2.90
2022-10-17T09:09:39.950Z,3.00
2022-10-17T09:13:54.675Z,2.97
2022-10-17T09:17:59.634Z,3.20
2022-10-17T09:22:04.231Z,3.60
2022-10-17T09:26:11.427Z,3.30
2022-10-17T09:30:44.259Z,3.70
2022-10-17T09:34:47.008Z,3.10
2022-10-17T09:38:50.926Z,3.30
2022-10-17T09:42:53.942Z,3.63
2022-10-17T09:47:11.144Z,3.20
2022-10-17T09:51:21.914Z,3.40
2022-10-17T09:55:34.450Z,3.53
2022-10-17T09:59:39.439Z,3.50
2022-10-17T10:03:41.008Z,3.60
2022-10-17T10:07:44.817Z,3.17
2022-10-17T10:11:49.739Z,2.70
2022-10-17T10:15:53.519Z,2.63
2022-10-17T10:19:55.349Z,2.43
2022-10-17T10:24:06.326Z,2.67
2022-10-17T10:28:10.795Z,2.33
2022-10-17T10:32:20.374Z,2.27
2022-10-17T10:36:23.263Z,2.30
2022-10-17T10:40:28.391Z,2.53
2022-10-17T10:44:31.925Z,2.20
2022-10-17T10:48:36.598Z,2.40
2022-10-17T10:52:43.662Z,1.77
2022-10-17T10:56:52.652Z,2.60
2022-10-17T11:00:57.641Z,2.60
2022-10-17T11:05:04.366Z,2.10
2022-10-17T11:09:15.986Z,2.40
2022-10-17T11:13:22.873Z,2.30
2022-10-17T11:17:32.672Z,2.53
2022-10-17T11:21:43.499Z,2.90
2022-10-17T11:25:45.579Z,2.40
2022-10-17T11:29:47.012Z,2.40
2022-10-17T11:33:52.732Z,2.10
2022-10-17T11:38:06.421Z,2.57
2022-10-17T11:42:13.004Z,2.77
2022-10-17T11:46:18.247Z,2.40
2022-10-17T11:54:52.635Z,2.10
2022-10-17T11:59:15.089Z,2.13
2022-10-17T12:03:29.285Z,2.47
2022-10-17T12:07:47.385Z,2.50
2022-10-17T12:11:53.877Z,2.73
2022-10-17T12:15:56.036Z,2.53
2022-10-17T12:20:26.047Z,2.40
2022-10-17T12:24:37.200Z,2.63
2022-10-17T12:28:44.456Z,2.90
2022-10-17T12:33:06.327Z,2.30
2022-10-17T12:37:11.158Z,2.60
2022-10-17T12:41:13.631Z,2.47
2022-10-17T12:45:47.166Z,2.57
2022-10-17T12:49:52.019Z,2.83
2022-10-17T12:53:59.315Z,2.83
2022-10-17T12:58:03.882Z,3.00
2022-10-17T13:02:18.056Z,3.00
2022-10-17T13:06:21.833Z,2.50
2022-10-17T13:14:34.700Z,2.70
2022-10-17T13:18:37.662Z,2.87
2022-10-17T13:22:45.165Z,2.50
2022-10-17T13:26:46.649Z,2.60
2022-10-17T13:30:49.833Z,2.83
2022-10-17T13:35:13.253Z,2.97
2022-10-17T13:39:19.644Z,3.00
2022-10-17T13:43:22.958Z,3.03
2022-10-17T13:47:26.926Z,3.07
2022-10-17T13:51:29.774Z,2.83
2022-10-17T13:55:31.338Z,2.97
2022-10-17T13:59:38.557Z,2.70
2022-10-17T14:03:48.285Z,2.87
2022-10-17T14:08:12.363Z,3.77
2022-10-17T14:12:15.174Z,3.03
2022-10-17T14:16:16.843Z,2.70
2022-10-17T14:24:44.731Z,2.50
2022-10-17T14:28:48.563Z,2.60
2022-10-17T14:32:50.337Z,2.70
2022-10-17T14:36:53.367Z,2.97
2022-10-17T14:41:09.754Z,2.17
2022-10-17T14:45:26.551Z,2.40
2022-10-17T14:49:34.504Z,2.23
2022-10-17T14:53:36.744Z,2.60
2022-10-17T14:57:44.645Z,2.27
2022-10-17T15:01:46.204Z,2.23
2022-10-17T15:05:48.411Z,2.40
2022-10-17T15:09:53.176Z,2.77
2022-10-17T15:13:56.014Z,2.30
2022-10-17T15:22:17.473Z,2.57
2022-10-17T15:26:22.029Z,2.20
2022-10-17T15:30:27.225Z,2.33
2022-10-17T15:34:28.836Z,2.30
2022-10-17T15:38:30.393Z,2.97
2022-10-17T15:42:32.566Z,2.50
2022-10-17T15:46:36.048Z,2.40
2022-10-17T15:50:37.683Z,2.40
2022-10-17T15:54:39.302Z,2.60
2022-10-17T15:58:40.807Z,2.40
2022-10-17T16:02:44.101Z,2.40
2022-10-17T16:06:45.760Z,2.77
2022-10-17T16:10:47.247Z,2.33
2022-10-17T16:14:48.739Z,2.60
2022-10-17T16:18:51.740Z,2.87
2022-10-17T16:22:54.043Z,2.80
2022-10-17T16:26:55.613Z,2.90
2022-10-17T16:30:57.085Z,3.10
2022-10-17T16:35:00.316Z,3.33
2022-10-17T16:39:01.892Z,3.50
2022-10-17T16:43:03.489Z,3.17
2022-10-17T16:47:05.884Z,3.43
2022-10-17T16:51:08.713Z,3.43
2022-10-17T16:55:10.737Z,3.60
2022-10-17T16:59:12.302Z,4.43
2022-10-17T17:03:13.854Z,4.00
2022-10-17T17:07:17.962Z,4.30
2022-10-17T17:11:21.235Z,4.53
2022-10-17T17:15:22.818Z,4.33
2022-10-17T17:19:24.507Z,4.77
2022-10-17T17:23:28.006Z,5.13
2022-10-17T17:27:29.822Z,4.67
2022-10-17T17:31:33.825Z,4.20
2022-10-17T17:35:38.699Z,4.10
2022-10-17T17:39:42.589Z,4.10
2022-10-17T17:43:45.276Z,4.70
2022-10-17T17:47:46.711Z,4.83
2022-10-17T17:51:48.270Z,4.77
2022-10-17T17:56:02.098Z,4.20
2022-10-17T18:00:05.012Z,3.87
2022-10-17T18:04:08.290Z,4.10
2022-10-17T18:08:09.695Z,4.10
2022-10-17T18:12:12.620Z,4.60
2022-10-17T18:16:14.229Z,4.80
2022-10-17T18:20:16.330Z,4.63
2022-10-17T18:24:19.732Z,4.63
2022-10-17T18:28:22.865Z,4.07
2022-10-17T18:32:24.588Z,3.87
2022-10-17T18:36:27.270Z,3.70
2022-10-17T18:40:28.892Z,3.67
2022-10-17T18:44:31.774Z,3.30
2022-10-17T18:48:34.046Z,3.73
2022-10-17T18:52:35.679Z,3.20
2022-10-17T18:56:37.396Z,3.73
2022-10-17T19:00:40.283Z,3.40
2022-10-17T19:04:41.756Z,3.40
2022-10-17T19:08:43.969Z,3.47
2022-10-17T19:12:45.514Z,3.50
2022-10-17T19:16:49.978Z,2.97
2022-10-17T19:20:51.630Z,2.97
2022-10-17T19:24:53.051Z,3.20
2022-10-17T19:28:54.728Z,3.30
2022-10-17T19:32:57.730Z,3.40
2022-10-17T19:36:59.310Z,2.87
2022-10-17T19:41:04.672Z,3.10
2022-10-17T19:45:08.319Z,3.17
2022-10-17T19:49:13.303Z,3.70
2022-10-17T19:53:14.838Z,3.57
2022-10-17T19:57:16.479Z,3.30
2022-10-17T20:01:20.086Z,2.80
2022-10-17T20:05:27.266Z,2.70
2022-10-17T20:09:29.626Z,2.70
2022-10-17T20:13:31.470Z,2.57
2022-10-17T20:21:42.483Z,2.23
2022-10-17T20:25:45.447Z,2.60
2022-10-17T20:29:47.086Z,2.73
2022-10-17T20:33:48.552Z,2.80
2022-10-17T20:37:51.525Z,2.70
2022-10-17T20:41:53.402Z,2.83
2022-10-17T20:46:03.601Z,2.50
2022-10-17T20:50:10.258Z,2.50
2022-10-17T20:54:13.235Z,2.70
2022-10-17T20:58:14.651Z,2.60
2022-10-17T21:02:16.258Z,2.57
2022-10-17T21:06:19.435Z,3.47
2022-10-17T21:10:34.942Z,3.20
2022-10-17T21:14:37.439Z,3.03
2022-10-17T21:18:39.902Z,3.17
2022-10-17T21:22:41.475Z,3.27
2022-10-17T21:26:45.782Z,3.30
2022-10-17T21:30:47.199Z,3.73
2022-10-17T21:34:48.746Z,3.47
2022-10-17T21:38:52.087Z,3.50
2022-10-17T21:42:55.029Z,3.23
2022-10-17T21:46:56.710Z,3.60
2022-10-17T21:50:59.846Z,3.50
2022-10-17T21:55:01.454Z,4.10
2022-10-17T21:59:04.992Z,4.00
2022-10-17T22:03:06.630Z,3.80
2022-10-17T22:07:08.120Z,4.90
2022-10-17T22:11:11.890Z,4.77
2022-10-17T22:19:18.009Z,4.63
2022-10-17T22:23:19.745Z,4.40
2022-10-17T22:27:21.287Z,4.40
2022-10-17T22:31:24.534Z,4.50
2022-10-17T22:35:26.227Z,4.33
2022-10-17T22:39:27.681Z,4.40
2022-10-17T22:43:29.473Z,4.90
2022-10-17T22:47:32.596Z,4.73
2022-10-17T22:51:34.370Z,4.70
2022-10-17T22:55:35.830Z,5.47
2022-10-17T22:59:37.510Z,5.03
2022-10-17T23:03:40.394Z,5.20
2022-10-17T23:07:42.022Z,5.00
2022-10-17T23:11:43.637Z,5.00
2022-10-17T23:15:45.534Z,4.93
2022-10-17T23:19:48.355Z,5.63
2022-10-17T23:23:49.978Z,6.00
2022-10-17T23:27:51.762Z,5.60
2022-10-17T23:31:54.678Z,5.57
2022-10-17T23:35:57.592Z,5.30
2022-10-17T23:39:59.306Z,5.33
2022-10-17T23:44:00.690Z,6.40
2022-10-17T23:48:02.222Z,6.13
2022-10-17T23:52:05.401Z,5.70
2022-10-17T23:56:08.237Z,5.97
